createdAt,value
2022-10-27T00:04:55.369Z,100955.63
2022-10-27T00:09:56.899Z,100959.72
2022-10-27T00:14:58.571Z,100956.69
2022-10-27T00:20:00.181Z,100953.00
2022-10-27T00:25:02.234Z,100952.91
2022-10-27T00:30:04.298Z,100961.91
2022-10-27T00:35:06.371Z,100958.19
2022-10-27T00:40:09.162Z,100957.97
2022-10-27T00:45:10.910Z,100969.88
2022-10-27T00:50:19.882Z,100961.91
2022-10-27T00:55:24.010Z,100967.31
2022-10-27T01:00:25.622Z,100967.53
2022-10-27T01:05:29.328Z,100970.53
2022-10-27T01:10:31.697Z,100977.50
2022-10-27T01:15:59.061Z,100977.03
2022-10-27T01:21:09.684Z,100977.00
2022-10-27T01:26:27.199Z,100975.91
2022-10-27T01:31:57.870Z,100980.25
2022-10-27T01:37:26.822Z,100992.53
2022-10-27T01:42:46.519Z,100980.94
2022-10-27T01:47:48.968Z,100989.25
2022-10-27T01:52:50.942Z,100995.06
2022-10-27T01:58:07.857Z,100987.69
2022-10-27T02:03:15.194Z,100987.22
2022-10-27T02:08:16.753Z,100995.63
2022-10-27T02:13:18.369Z,101005.78
2022-10-27T02:18:26.327Z,100997.97
2022-10-27T02:23:28.915Z,101003.34
2022-10-27T02:28:49.852Z,101012.63
2022-10-27T02:33:52.776Z,101022.97
2022-10-27T02:38:54.338Z,101020.69
2022-10-27T02:43:55.898Z,101019.25
2022-10-27T02:48:57.476Z,101020.41
2022-10-27T02:53:59.066Z,101023.97
2022-10-27T02:59:00.673Z,101019.63
2022-10-27T03:04:02.244Z,101024.38
2022-10-27T03:09:03.853Z,101021.28
2022-10-27T03:14:05.448Z,101031.22
2022-10-27T03:19:07.073Z,101033.78
2022-10-27T03:24:08.750Z,101034.88
2022-10-27T03:29:10.323Z,101037.47
2022-10-27T03:34:11.940Z,101045.22
2022-10-27T03:39:13.547Z,101045.41
2022-10-27T03:44:15.078Z,101049.03
2022-10-27T03:49:16.634Z,101056.94
2022-10-27T03:54:18.590Z,101067.84
2022-10-27T03:59:20.166Z,101065.03
2022-10-27T04:04:21.718Z,101059.09
2022-10-27T04:09:23.315Z,101065.44
2022-10-27T04:14:24.864Z,101067.38
2022-10-27T04:19:26.437Z,101067.38
2022-10-27T04:24:28.032Z,101065.63
2022-10-27T04:29:29.644Z,101062.16
2022-10-27T04:34:31.211Z,101060.59
2022-10-27T04:39:32.781Z,101064.28
2022-10-27T04:44:34.311Z,101071.59
2022-10-27T04:49:36.279Z,101078.72
2022-10-27T04:54:38.954Z,101080.81
2022-10-27T04:59:40.530Z,101080.13
2022-10-27T05:04:42.081Z,101082.22
2022-10-27T05:09:43.666Z,101090.44
2022-10-27T05:14:45.252Z,101086.94
2022-10-27T05:19:46.903Z,101097.75
2022-10-27T05:24:48.477Z,101104.97
2022-10-27T05:29:50.048Z,101115.81
2022-10-27T05:34:51.650Z,101115.81
2022-10-27T05:39:53.245Z,101126.44
2022-10-27T05:44:54.841Z,101124.41
2022-10-27T05:49:56.406Z,101133.09
2022-10-27T05:54:57.961Z,101133.56
2022-10-27T05:59:59.519Z,101135.09
2022-10-27T06:05:01.041Z,101140.97
2022-10-27T06:10:02.597Z,101144.25
2022-10-27T06:15:05.119Z,101161.03
2022-10-27T06:20:06.898Z,101162.97
2022-10-27T06:25:08.627Z,101175.91
2022-10-27T06:30:10.597Z,101167.22
2022-10-27T06:35:12.313Z,101170.91
2022-10-27T06:40:19.013Z,101181.00
2022-10-27T06:45:20.551Z,101190.78
2022-10-27T06:50:22.145Z,101200.94
2022-10-27T06:55:23.684Z,101200.84
2022-10-27T07:00:25.511Z,101206.00
2022-10-27T07:05:27.188Z,101209.44
2022-10-27T07:10:28.786Z,101206.91
2022-10-27T07:15:33.201Z,101210.66
2022-10-27T07:20:36.143Z,101217.44
2022-10-27T07:25:38.117Z,101227.09
2022-10-27T07:30:44.398Z,101217.44
2022-10-27T07:35:49.451Z,101226.81
2022-10-27T07:40:50.993Z,101235.28
2022-10-27T07:45:52.606Z,101230.38
2022-10-27T07:50:55.276Z,101248.03
2022-10-27T07:55:58.370Z,101238.63
2022-10-27T08:01:00.459Z,101247.72
2022-10-27T08:06:03.364Z,101263.78
2022-10-27T08:11:05.002Z,101262.78
2022-10-27T08:16:06.726Z,101263.72
2022-10-27T08:21:08.302Z,101264.97
2022-10-27T08:26:10.122Z,101266.41
2022-10-27T08:31:11.654Z,101264.59
2022-10-27T08:36:13.976Z,101270.91
2022-10-27T08:41:25.584Z,101283.66
2022-10-27T08:46:45.352Z,101287.31
2022-10-27T08:51:49.502Z,101282.13
2022-10-27T08:56:53.113Z,101281.97
2022-10-27T09:02:23.051Z,101292.16
2022-10-27T09:07:36.234Z,101288.94
2022-10-27T09:13:05.458Z,101298.63
2022-10-27T09:18:15.554Z,101280.25
2022-10-27T09:23:18.653Z,101288.72
2022-10-27T09:28:25.253Z,101288.16
2022-10-27T09:33:34.166Z,101279.28
2022-10-27T09:38:37.389Z,101276.72
2022-10-27T09:43:39.015Z,101280.63
2022-10-27T09:48:41.365Z,101284.22
2022-10-27T09:53:52.706Z,101278.59
2022-10-27T09:59:07.141Z,101275.56
2022-10-27T10:04:36.731Z,101289.66
2022-10-27T10:09:39.658Z,101284.94
2022-10-27T10:14:41.302Z,101283.75
2022-10-27T10:19:46.716Z,101286.50
2022-10-27T10:24:48.329Z,101283.91
2022-10-27T10:29:51.000Z,101277.72
2022-10-27T10:34:56.796Z,101273.56
2022-10-27T10:40:28.487Z,101277.59
2022-10-27T10:45:34.479Z,101275.16
2022-10-27T10:50:47.009Z,101270.72
2022-10-27T10:55:48.620Z,101277.03
2022-10-27T11:00:56.407Z,101277.59
2022-10-27T11:06:01.941Z,101283.75
2022-10-27T11:11:06.888Z,101275.56
2022-10-27T11:16:10.876Z,101280.75
2022-10-27T11:21:24.902Z,101276.75
2022-10-27T11:26:55.765Z,101283.38
2022-10-27T11:32:13.024Z,101277.56
2022-10-27T11:37:31.987Z,101266.47
2022-10-27T11:42:45.693Z,101265.44
2022-10-27T11:47:51.778Z,101273.09
2022-10-27T11:52:56.963Z,101263.09
2022-10-27T11:58:24.803Z,101264.78
2022-10-27T12:03:51.720Z,101258.19
2022-10-27T12:09:00.821Z,101258.47
2022-10-27T12:14:25.785Z,101261.94
2022-10-27T12:19:36.122Z,101260.19
2022-10-27T12:25:08.292Z,101259.91
2022-10-27T12:30:17.023Z,101268.75
2022-10-27T12:35:27.722Z,101256.31
2022-10-27T12:40:48.410Z,101242.91
2022-10-27T12:46:06.489Z,101242.72
2022-10-27T12:51:32.089Z,101233.78
2022-10-27T12:57:14.790Z,101246.16
2022-10-27T13:02:18.211Z,101250.03
2022-10-27T13:07:53.381Z,101244.56
2022-10-27T13:13:01.169Z,101245.25
2022-10-27T13:18:20.709Z,101242.50
2022-10-27T13:23:36.392Z,101236.91
2022-10-27T13:28:48.714Z,101247.75
2022-10-27T13:39:15.054Z,101238.31
2022-10-27T13:44:29.773Z,101234.53
2022-10-27T13:49:40.450Z,101230.56
2022-10-27T13:54:58.326Z,101224.53
2022-10-27T14:00:06.647Z,101223.69
2022-10-27T14:05:22.060Z,101221.97
2022-10-27T14:10:23.741Z,101215.63
2022-10-27T14:15:28.115Z,101215.09
2022-10-27T14:20:35.359Z,101221.16
2022-10-27T14:25:36.957Z,101216.28
2022-10-27T14:30:38.590Z,101227.81
2022-10-27T14:35:40.163Z,101221.88
2022-10-27T14:40:41.751Z,101222.91
2022-10-27T14:45:43.930Z,101227.38
2022-10-27T14:50:45.623Z,101231.25
2022-10-27T14:56:20.384Z,101230.69
2022-10-27T15:01:34.393Z,101224.03
2022-10-27T15:06:36.772Z,101234.97
2022-10-27T15:11:38.341Z,101236.09
2022-10-27T15:16:39.952Z,101234.72
2022-10-27T15:21:42.123Z,101234.13
2022-10-27T15:26:44.843Z,101226.16
2022-10-27T15:31:47.454Z,101224.94
2022-10-27T15:36:50.013Z,101223.19
2022-10-27T15:41:52.442Z,101231.44
2022-10-27T15:46:54.010Z,101227.22
2022-10-27T15:51:58.693Z,101226.41
2022-10-27T15:57:02.578Z,101224.56
2022-10-27T16:02:29.077Z,101240.00
2022-10-27T16:07:31.610Z,101230.41
2022-10-27T16:12:41.625Z,101227.03
2022-10-27T16:17:47.497Z,101231.31
2022-10-27T16:22:50.688Z,101224.75
2022-10-27T16:27:52.718Z,101228.84
2022-10-27T16:33:02.157Z,101218.50
2022-10-27T16:38:03.709Z,101218.75
2022-10-27T16:43:06.207Z,101215.06
2022-10-27T16:48:13.357Z,101213.31
2022-10-27T16:53:20.200Z,101207.66
2022-10-27T16:58:21.758Z,101215.31
2022-10-27T17:03:23.413Z,101221.00
2022-10-27T17:08:25.237Z,101216.56
2022-10-27T17:13:26.803Z,101214.09
2022-10-27T17:18:29.837Z,101212.34
2022-10-27T17:23:31.561Z,101209.91
2022-10-27T17:28:34.030Z,101211.88
2022-10-27T17:33:36.416Z,101213.34
2022-10-27T17:38:38.485Z,101212.13
2022-10-27T17:43:40.069Z,101214.44
2022-10-27T17:48:47.253Z,101213.72
2022-10-27T17:53:50.367Z,101223.00
2022-10-27T17:58:53.235Z,101215.31
2022-10-27T18:03:56.307Z,101212.59
2022-10-27T18:08:59.961Z,101219.53
2022-10-27T18:14:04.592Z,101207.94
2022-10-27T18:19:08.455Z,101217.56
2022-10-27T18:24:11.727Z,101224.47
2022-10-27T18:29:14.379Z,101220.53
2022-10-27T18:34:16.929Z,101218.53
2022-10-27T18:39:19.699Z,101216.31
2022-10-27T18:44:22.266Z,101218.28
2022-10-27T18:49:46.850Z,101225.66
2022-10-27T18:54:48.326Z,101223.72
2022-10-27T18:59:49.875Z,101231.34
2022-10-27T19:04:53.919Z,101227.50
2022-10-27T19:09:55.518Z,101231.75
2022-10-27T19:14:57.111Z,101228.09
2022-10-27T19:19:59.857Z,101223.72
2022-10-27T19:25:02.411Z,101223.69
2022-10-27T19:30:04.219Z,101230.84
2022-10-27T19:35:05.926Z,101229.84
2022-10-27T19:40:08.583Z,101234.06
2022-10-27T19:45:10.340Z,101231.63
2022-10-27T19:50:11.895Z,101226.97
2022-10-27T19:55:13.510Z,101224.72
2022-10-27T20:00:15.584Z,101230.84
2022-10-27T20:05:17.250Z,101230.31
2022-10-27T20:10:20.265Z,101236.97
2022-10-27T20:15:21.850Z,101240.91
2022-10-27T20:20:23.382Z,101243.84
2022-10-27T20:25:24.941Z,101238.41
2022-10-27T20:30:26.490Z,101252.03
2022-10-27T20:35:28.023Z,101249.00
2022-10-27T20:40:29.576Z,101244.25
2022-10-27T20:45:31.197Z,101245.34
2022-10-27T20:50:32.788Z,101244.28
2022-10-27T20:55:34.359Z,101229.09
2022-10-27T21:00:35.916Z,101228.13
2022-10-27T21:05:37.611Z,101219.56
2022-10-27T21:10:42.579Z,101227.38
2022-10-27T21:15:44.452Z,101227.19
2022-10-27T21:20:46.089Z,101214.16
2022-10-27T21:25:47.723Z,101208.19
2022-10-27T21:30:49.340Z,101200.94
2022-10-27T21:35:50.918Z,101204.66
2022-10-27T21:40:52.499Z,101196.19
2022-10-27T21:45:57.770Z,101188.63
2022-10-27T21:50:59.333Z,101194.03
2022-10-27T21:56:04.914Z,101202.91
2022-10-27T22:01:16.218Z,101190.56
2022-10-27T22:06:22.639Z,101187.53
2022-10-27T22:11:26.626Z,101185.25
2022-10-27T22:16:29.936Z,101174.53
2022-10-27T22:21:34.343Z,101168.25
2022-10-27T22:26:38.817Z,101164.34
2022-10-27T22:31:40.419Z,101169.44
2022-10-27T22:36:42.121Z,101163.03
2022-10-27T22:41:43.855Z,101150.28
2022-10-27T22:46:45.474Z,101152.66
2022-10-27T22:51:48.601Z,101149.38
2022-10-27T22:56:50.251Z,101141.81
2022-10-27T23:01:53.217Z,101138.13
2022-10-27T23:06:54.956Z,101136.84
2022-10-27T23:11:56.495Z,101138.78
2022-10-27T23:16:59.243Z,101144.41
2022-10-27T23:22:00.781Z,101140.50
2022-10-27T23:27:02.346Z,101147.03
2022-10-27T23:32:04.137Z,101144.84
2022-10-27T23:37:05.669Z,101133.78
2022-10-27T23:42:07.285Z,101140.84
2022-10-27T23:47:10.682Z,101134.66
2022-10-27T23:52:12.253Z,101131.94
2022-10-27T23:57:13.790Z,101117.13
